»·PEaware :: N5MW KMRY-KSBA

N5MW :: KMRY-KSBA

FLIGHT INFORMATION

Flight Status: Arrived
Operator: Privately registered:
United States
More flights under this callsign
Pilot: Max W. (2591)
Aircraft: SOCATA TBM-900
(TBM9)
More flights by this aircraft type
Origin: KMRY Monterey Peninsula
United States
Destination: KSBA Santa Barbara Mun
United States
More flights between these airports :: More routes between these airports
Route: +MRY4 SERFR GVO
File this flight plan on PilotEdge
Remarks:
Altitude:
(Current/Filed)
19,000ft
Speed:
(Current/Filed)
450kts
Departed: 05-Oct-18 09:58 AM
Arrived: 05-Oct-18 10:44 AM
Distance/Time
Traveled:
163nm/0:45
Distance/Time
To Go:
Arrived

Flight Plot

Page will automatically refresh every two minutes.

Flight plan parsing failed; only flown route is shown


Map Options




Map Legend


Flown Route
Filed Route
Departure Airport
Arrival Airport
Navaid (VOR, NDB)
Fix

Horizontal Profiles

Position Reports

Time Latitude Longitude Heading Altitude Ground
Speed
05-Oct-18 09:46 36.584894 -121.844134 24 165ft 0kts
05-Oct-18 09:47 36.584894 -121.844134 24 165ft 0kts
05-Oct-18 09:48 36.584894 -121.844134 24 165ft 0kts
05-Oct-18 09:49 36.584894 -121.844134 24 165ft 0kts
05-Oct-18 09:50 36.584894 -121.844134 24 165ft 0kts
05-Oct-18 09:51 36.584894 -121.844134 24 165ft 0kts
05-Oct-18 09:52 36.584894 -121.844134 24 165ft 0kts
05-Oct-18 09:53 36.584894 -121.844134 24 165ft 0kts
05-Oct-18 09:54 36.584894 -121.844134 24 165ft 0kts
05-Oct-18 09:55 36.584932 -121.844054 76 165ft 2kts
05-Oct-18 09:56 36.585187 -121.843563 18 165ft 0kts
05-Oct-18 09:57 36.585397 -121.842581 116 165ft 3kts
05-Oct-18 09:58 36.583717 -121.837602 113 165ft 26kts
05-Oct-18 09:59 36.583742 -121.834737 293 165ft 31kts
05-Oct-18 10:00 36.594642 -121.863631 291 1183ft 144kts
05-Oct-18 10:01 36.630212 -121.888297 340 3324ft 165kts
05-Oct-18 10:02 36.672392 -121.887314 63 5528ft 178kts
05-Oct-18 10:03 36.650621 -121.837034 155 7621ft 186kts
05-Oct-18 10:04 36.609989 -121.800412 145 9377ft 194kts
05-Oct-18 10:05 36.564297 -121.762757 146 11045ft 201kts
05-Oct-18 10:06 36.518388 -121.725584 145 12655ft 209kts
05-Oct-18 10:07 36.469109 -121.685800 145 14407ft 217kts
05-Oct-18 10:08 36.417933 -121.644571 145 16143ft 224kts
05-Oct-18 10:09 36.364800 -121.601827 145 17683ft 232kts
05-Oct-18 10:10 36.309904 -121.557750 145 19005ft 246kts
05-Oct-18 10:11 36.246114 -121.506635 146 19016ft 295kts
05-Oct-18 10:12 36.176396 -121.450872 146 19006ft 309kts
05-Oct-18 10:13 36.104150 -121.393201 146 19004ft 313kts
05-Oct-18 10:14 36.032772 -121.334517 145 18999ft 313kts
05-Oct-18 10:15 35.963749 -121.276074 144 18995ft 314kts
05-Oct-18 10:16 35.893831 -121.217006 144 18991ft 314kts
05-Oct-18 10:17 35.823382 -121.163988 159 18921ft 312kts
05-Oct-18 10:18 35.756146 -121.106704 142 18987ft 303kts
05-Oct-18 10:19 35.688496 -121.044532 144 19009ft 310kts
05-Oct-18 10:20 35.617725 -120.985095 144 19009ft 312kts
05-Oct-18 10:21 35.546640 -120.925697 144 19009ft 312kts
05-Oct-18 10:22 35.478465 -120.868851 144 18999ft 313kts
05-Oct-18 10:23 35.407175 -120.809532 144 18974ft 313kts
05-Oct-18 10:24 35.335276 -120.749839 144 18741ft 320kts
05-Oct-18 10:25 35.260078 -120.687551 144 17788ft 332kts
05-Oct-18 10:26 35.183959 -120.624639 144 16818ft 332kts
05-Oct-18 10:27 35.109296 -120.563068 144 15838ft 323kts
05-Oct-18 10:28 35.035826 -120.502621 144 14863ft 319kts
05-Oct-18 10:29 34.962960 -120.442792 144 13892ft 317kts
05-Oct-18 10:30 34.891514 -120.384266 145 12908ft 315kts
05-Oct-18 10:31 34.818962 -120.324950 145 11117ft 318kts
05-Oct-18 10:32 34.751268 -120.269752 145 9342ft 289kts
05-Oct-18 10:33 34.687166 -120.217559 145 7590ft 283kts
05-Oct-18 10:34 34.622859 -120.165300 145 5797ft 277kts
05-Oct-18 10:35 34.561346 -120.115411 145 5039ft 254kts
05-Oct-18 10:36 34.505861 -120.071459 171 5047ft 238kts
05-Oct-18 10:37 34.437962 -120.059210 146 5003ft 251kts
05-Oct-18 10:38 34.406419 -119.987668 112 5012ft 242kts
05-Oct-18 10:39 34.379711 -119.913683 112 5008ft 239kts
05-Oct-18 10:40 34.370404 -119.837958 82 3614ft 236kts
05-Oct-18 10:41 34.380633 -119.762762 82 2997ft 209kts
05-Oct-18 10:42 34.389442 -119.705155 22 2157ft 185kts
05-Oct-18 10:43 34.417770 -119.743321 295 1439ft 154kts
05-Oct-18 10:44 34.427733 -119.789153 272 1292ft 128kts
05-Oct-18 10:45 34.428098 -119.826646 263 271ft 104kts
05-Oct-18 10:46 34.426798 -119.841420 150 16ft 4kts
05-Oct-18 10:47 34.425110 -119.837249 112 16ft 2kts

Navigation Log

Ident Type
Flight plan parsing failed, navigation log unavailable